Time;durP1;ratioP1;P1;durP2;ratioP2;P2;SDS_P1;SDS_P2;PMS_P1;PMS_P2;Temp;Humidity;BMP_temperature;BMP_pressure;BME280_temperature;BME280_humidity;BME280_pressure;Samples;Min_cycle;Max_cycle;Signal;HPM_P1;HPM_P2
2022/11/23 00:02:15;;;;;;;19.75;8.07;;;6.90;99.90;;;;;;4955655;29;20283;-49
2022/11/23 00:04:40;;;;;;;9.73;3.78;;;7.00;99.90;;;;;;4956378;28;20570;-51
2022/11/23 00:07:05;;;;;;;17.33;4.93;;;6.90;99.90;;;;;;4956205;29;20086;-49
2022/11/23 00:09:31;;;;;;;7.45;3.35;;;6.90;99.90;;;;;;4956447;28;20062;-49
2022/11/23 00:11:56;;;;;;;10.43;3.92;;;6.80;99.90;;;;;;4955643;29;20024;-48
2022/11/23 00:14:22;;;;;;;7.68;3.80;;;6.80;99.90;;;;;;4956243;29;20403;-50
2022/11/23 00:16:47;;;;;;;8.70;3.40;;;6.80;99.90;;;;;;4956061;28;20038;-48
2022/11/23 00:19:13;;;;;;;8.73;3.05;;;6.70;99.90;;;;;;4956297;29;20039;-50
2022/11/23 00:21:38;;;;;;;11.13;3.78;;;6.70;99.90;;;;;;4956036;29;20404;-49
2022/11/23 00:24:04;;;;;;;8.05;3.85;;;6.70;99.90;;;;;;4955166;28;20031;-48
2022/11/23 00:26:30;;;;;;;11.73;4.38;;;6.60;99.90;;;;;;4963004;28;20039;-49
2022/11/23 00:28:55;;;;;;;10.82;4.78;;;6.60;99.90;;;;;;4973735;28;20023;-48
2022/11/23 00:31:21;;;;;;;7.75;3.60;;;6.60;99.90;;;;;;4974954;28;20507;-48
2022/11/23 00:33:49;;;;;;;14.70;3.78;;;6.60;99.90;;;;;;4974238;28;20106;-49
2022/11/23 00:36:15;;;;;;;9.23;4.22;;;6.60;99.90;;;;;;4974818;28;20018;-50
2022/11/23 00:38:42;;;;;;;6.03;3.75;;;6.70;99.90;;;;;;4974678;28;20022;-47
2022/11/23 00:41:16;;;;;;;7.72;3.33;;;6.70;99.90;;;;;;4974859;28;20062;-51
2022/11/23 00:43:42;;;;;;;10.57;3.15;;;6.70;99.90;;;;;;4974202;28;20385;-52
2022/11/23 00:46:11;;;;;;;10.35;3.35;;;6.70;99.90;;;;;;4974820;28;20584;-52
2022/11/23 00:48:37;;;;;;;10.55;3.92;;;6.80;99.90;;;;;;4972597;28;20026;-49
2022/11/23 00:51:05;;;;;;;10.57;3.75;;;6.70;99.90;;;;;;4972711;28;20111;-49
2022/11/23 00:53:31;;;;;;;7.65;4.38;;;6.70;99.90;;;;;;4972047;28;20073;-50
2022/11/23 00:55:56;;;;;;;9.10;4.55;;;6.80;99.90;;;;;;4973464;28;20487;-49
2022/11/23 00:58:22;;;;;;;15.10;3.70;;;6.80;99.90;;;;;;4974559;28;20022;-49
2022/11/23 01:00:48;;;;;;;13.45;3.20;;;6.80;99.90;;;;;;4974468;28;20081;-50
2022/11/23 01:03:14;;;;;;;11.07;3.47;;;6.80;99.90;;;;;;4973754;28;20023;-49
2022/11/23 01:05:40;;;;;;;9.75;3.33;;;6.80;99.90;;;;;;4974372;28;20483;-49
2022/11/23 01:08:05;;;;;;;17.73;3.67;;;6.80;99.90;;;;;;4974112;28;20093;-49
2022/11/23 01:10:31;;;;;;;10.68;4.45;;;6.80;99.90;;;;;;4974300;28;20487;-49
2022/11/23 01:12:57;;;;;;;67.07;35.22;;;6.80;99.90;;;;;;4974268;28;20062;-48
2022/11/23 01:15:23;;;;;;;14.43;6.63;;;6.80;99.90;;;;;;4974430;28;20050;-49
2022/11/23 01:17:49;;;;;;;11.50;3.70;;;6.90;99.90;;;;;;4973397;28;20460;-50
2022/11/23 01:20:15;;;;;;;15.90;3.90;;;6.90;99.90;;;;;;4974143;28;20125;-50
2022/11/23 01:22:41;;;;;;;16.35;3.67;;;6.90;99.90;;;;;;4972123;28;20026;-48
2022/11/23 01:25:06;;;;;;;6.43;3.50;;;6.80;99.90;;;;;;4973942;28;20031;-50
2022/11/23 01:27:32;;;;;;;8.75;3.55;;;6.90;99.90;;;;;;4974221;28;20035;-50
2022/11/23 01:29:57;;;;;;;11.43;3.83;;;6.90;99.90;;;;;;4973935;28;20031;-49
2022/11/23 01:32:23;;;;;;;7.82;4.43;;;6.90;99.90;;;;;;4973405;28;20037;-49
2022/11/23 01:34:48;;;;;;;12.73;3.53;;;6.90;99.90;;;;;;4973864;28;20031;-51
2022/11/23 01:37:14;;;;;;;13.48;3.65;;;6.90;99.90;;;;;;4972626;28;20022;-49
2022/11/23 01:39:39;;;;;;;9.10;3.63;;;6.90;99.90;;;;;;4974004;28;20100;-49
2022/11/23 01:42:07;;;;;;;9.02;3.17;;;6.90;99.90;;;;;;4973355;28;20031;-48
2022/11/23 01:44:35;;;;;;;10.68;2.83;;;6.90;99.90;;;;;;4973964;28;20019;-54
2022/11/23 01:47:03;;;;;;;8.27;2.90;;;7.00;99.90;;;;;;4973896;28;20483;-49
2022/11/23 01:49:39;;;;;;;9.30;3.97;;;7.00;99.90;;;;;;4973528;28;20065;-50
2022/11/23 01:52:21;;;;;;;8.23;2.78;;;7.00;99.90;;;;;;4973335;28;20030;-53
2022/11/23 01:54:53;;;;;;;11.52;3.40;;;7.10;99.90;;;;;;4973760;28;20076;-51
2022/11/23 01:57:37;;;;;;;9.20;3.03;;;7.10;99.90;;;;;;4972548;28;20053;-52
2022/11/23 02:00:04;;;;;;;12.77;3.38;;;7.10;99.90;;;;;;4973404;28;20031;-49
2022/11/23 02:02:31;;;;;;;11.32;3.22;;;7.10;99.90;;;;;;4971556;28;20023;-53
2022/11/23 02:05:00;;;;;;;12.90;3.50;;;7.10;99.90;;;;;;4973693;28;20068;-48
2022/11/23 02:07:25;;;;;;;7.95;3.00;;;7.10;99.90;;;;;;4973507;28;20031;-49
2022/11/23 02:09:52;;;;;;;7.22;2.75;;;7.10;99.90;;;;;;4973518;28;20571;-49
2022/11/23 02:12:17;;;;;;;13.23;3.63;;;7.10;99.90;;;;;;4972833;28;20023;-49
2022/11/23 02:14:44;;;;;;;17.42;3.70;;;7.10;99.90;;;;;;4973411;28;20094;-49
2022/11/23 02:17:10;;;;;;;7.50;3.38;;;7.10;99.90;;;;;;4972247;28;20034;-50
2022/11/23 02:20:13;;;;;;;12.32;3.30;;;7.20;99.90;;;;;;4973151;28;20368;-50
2022/11/23 02:22:56;;;;;;;10.20;3.20;;;7.20;99.90;;;;;;4972585;28;20050;-49
2022/11/23 02:25:42;;;;;;;6.47;2.55;;;7.20;99.90;;;;;;4973032;28;20070;-50
2022/11/23 02:28:08;;;;;;;;;;;7.20;99.90;;;;;;4973407;28;20034;-50
2022/11/23 02:30:35;;;;;;;;;;;7.20;99.90;;;;;;4973468;28;19906;-52
2022/11/23 02:33:04;;;;;;;9.48;2.58;;;7.20;99.90;;;;;;4972491;28;19910;-52
2022/11/23 02:35:30;;;;;;;10.30;3.63;;;7.20;99.90;;;;;;4973344;28;20049;-48
2022/11/23 02:37:56;;;;;;;12.85;4.28;;;7.20;99.90;;;;;;4972881;28;20027;-48
2022/11/23 02:40:30;;;;;;;8.48;2.97;;;7.20;99.90;;;;;;4972654;28;20066;-51
2022/11/23 02:42:56;;;;;;;8.23;3.22;;;7.20;99.90;;;;;;4972282;28;20559;-49
2022/11/23 02:45:40;;;;;;;9.93;3.33;;;7.20;99.90;;;;;;4972905;28;20031;-49
2022/11/23 02:48:05;;;;;;;5.50;2.67;;;7.10;99.90;;;;;;4972618;28;20026;-50
2022/11/23 02:50:31;;;;;;;9.43;3.25;;;7.20;99.90;;;;;;4972795;28;20444;-49
2022/11/23 02:52:57;;;;;;;11.65;3.20;;;7.10;99.90;;;;;;4970854;28;20026;-53
2022/11/23 02:55:23;;;;;;;10.02;3.08;;;7.20;99.90;;;;;;4972694;28;20121;-52
2022/11/23 02:57:48;;;;;;;12.02;3.00;;;7.20;99.90;;;;;;4972927;28;20023;-51
2022/11/23 03:00:15;;;;;;;7.00;3.70;;;7.20;99.90;;;;;;4973585;28;20162;-51
2022/11/23 03:02:40;;;;;;;12.52;3.17;;;7.20;99.90;;;;;;4972609;28;20043;-48
2022/11/23 03:05:06;;;;;;;6.95;3.85;;;7.20;99.90;;;;;;4972645;28;20491;-49
2022/11/23 03:07:32;;;;;;;13.27;3.67;;;7.20;99.90;;;;;;4971366;28;20459;-48
2022/11/23 03:09:57;;;;;;;7.18;3.13;;;7.10;99.90;;;;;;4972795;28;20058;-47
2022/11/23 03:12:23;;;;;;;8.15;3.15;;;7.10;99.90;;;;;;4972076;28;20031;-51
2022/11/23 03:14:48;;;;;;;12.38;3.55;;;7.10;99.90;;;;;;4972833;28;20391;-49
2022/11/23 03:17:14;;;;;;;7.05;3.08;;;7.10;99.90;;;;;;4973352;28;20034;-48
2022/11/23 03:19:39;;;;;;;6.35;3.33;;;7.10;99.90;;;;;;4976448;28;20065;-49
2022/11/23 03:22:05;;;;;;;4.43;2.50;;;7.00;99.90;;;;;;4975872;28;20494;-51
2022/11/23 03:24:30;;;;;;;10.35;3.28;;;7.10;99.90;;;;;;4976496;28;20030;-49
2022/11/23 03:26:56;;;;;;;10.38;3.15;;;7.10;99.90;;;;;;4976063;28;20027;-50
2022/11/23 03:29:25;;;;;;;12.73;3.90;;;7.10;99.90;;;;;;4976439;28;20029;-52
2022/11/23 03:31:51;;;;;;;5.78;3.05;;;7.10;99.90;;;;;;4990657;28;20031;-52
2022/11/23 03:34:17;;;;;;;10.35;3.40;;;7.10;99.90;;;;;;4975954;28;20023;-48
2022/11/23 03:36:42;;;;;;;7.47;2.78;;;7.10;99.90;;;;;;4976281;28;20354;-49
2022/11/23 03:39:08;;;;;;;5.65;2.40;;;7.10;99.90;;;;;;4976245;28;20035;-48
2022/11/23 03:41:33;;;;;;;9.55;2.60;;;7.10;99.90;;;;;;4975988;28;20038;-51
2022/11/23 03:43:59;;;;;;;7.38;2.92;;;7.10;99.90;;;;;;4975580;28;20446;-48
2022/11/23 03:46:24;;;;;;;13.85;3.22;;;7.10;99.90;;;;;;4975761;28;20034;-50
2022/11/23 03:48:50;;;;;;;8.50;2.70;;;7.20;99.90;;;;;;4975847;28;20043;-48
2022/11/23 03:51:15;;;;;;;5.63;2.63;;;7.20;99.90;;;;;;4975963;28;20073;-50
2022/11/23 03:53:41;;;;;;;9.57;3.35;;;7.20;99.90;;;;;;4975241;28;20101;-48
2022/11/23 03:56:07;;;;;;;6.20;2.65;;;7.10;99.90;;;;;;4975981;28;20037;-51
2022/11/23 03:58:32;;;;;;;6.30;2.55;;;7.20;99.90;;;;;;4975554;28;20051;-48
2022/11/23 04:00:58;;;;;;;11.57;3.50;;;7.20;99.90;;;;;;4975719;28;20399;-50
2022/11/23 04:03:23;;;;;;;9.80;4.35;;;7.10;99.90;;;;;;4974927;28;20114;-49
2022/11/23 04:05:49;;;;;;;8.73;2.88;;;7.10;99.90;;;;;;4975632;28;20058;-50
2022/11/23 04:08:14;;;;;;;7.38;3.00;;;7.10;99.90;;;;;;4975356;28;20031;-48
2022/11/23 04:10:40;;;;;;;5.63;2.55;;;7.10;99.90;;;;;;4975300;28;20081;-49
2022/11/23 04:13:05;;;;;;;12.23;3.95;;;7.10;99.90;;;;;;4973334;28;20511;-51
2022/11/23 04:15:31;;;;;;;6.43;2.53;;;7.20;99.90;;;;;;4975297;28;20113;-49
2022/11/23 04:17:56;;;;;;;6.90;2.50;;;7.20;99.90;;;;;;4973946;28;20031;-47
2022/11/23 04:20:22;;;;;;;11.68;2.80;;;7.10;99.90;;;;;;4975291;28;20039;-49
2022/11/23 04:22:47;;;;;;;6.53;2.70;;;7.10;99.90;;;;;;4974464;28;20030;-53
2022/11/23 04:25:13;;;;;;;6.55;2.70;;;7.10;99.90;;;;;;4975109;28;20030;-49
2022/11/23 04:27:38;;;;;;;7.75;2.72;;;7.10;99.90;;;;;;4974892;28;20507;-49
2022/11/23 04:30:04;;;;;;;9.77;2.85;;;7.10;99.90;;;;;;4973775;28;20035;-49
2022/11/23 04:32:30;;;;;;;9.50;3.05;;;7.10;99.90;;;;;;4974367;28;20029;-51
2022/11/23 04:34:55;;;;;;;13.50;3.05;;;7.10;99.90;;;;;;4989953;28;20122;-50
2022/11/23 04:37:21;;;;;;;9.38;2.33;;;7.10;99.90;;;;;;4974809;28;20027;-48
2022/11/23 04:39:46;;;;;;;10.10;2.60;;;7.10;99.90;;;;;;4974635;28;20487;-50
2022/11/23 04:42:12;;;;;;;15.90;4.07;;;7.20;99.90;;;;;;4974187;28;20552;-51
2022/11/23 04:44:38;;;;;;;11.68;2.78;;;7.20;99.90;;;;;;4974894;28;20102;-49
2022/11/23 04:47:03;;;;;;;4.07;2.92;;;7.20;99.90;;;;;;4974763;28;20089;-48
2022/11/23 04:49:29;;;;;;;5.47;2.67;;;7.20;99.90;;;;;;4973449;28;20121;-48
2022/11/23 04:51:55;;;;;;;7.72;3.28;;;7.30;99.90;;;;;;4974376;28;20125;-52
2022/11/23 04:54:20;;;;;;;5.93;2.33;;;7.20;99.90;;;;;;4974649;28;20408;-50
2022/11/23 04:56:46;;;;;;;4.70;2.50;;;7.30;99.90;;;;;;4974815;28;20027;-49
2022/11/23 04:59:11;;;;;;;4.70;2.45;;;7.30;99.90;;;;;;4974486;28;20019;-50
2022/11/23 05:01:37;;;;;;;12.65;2.85;;;7.30;99.90;;;;;;4974570;28;20058;-48
2022/11/23 05:04:03;;;;;;;5.30;3.10;;;7.40;99.90;;;;;;4973891;28;20073;-49
2022/11/23 05:06:28;;;;;;;8.80;3.42;;;7.30;99.90;;;;;;4974235;28;20057;-49
2022/11/23 05:08:54;;;;;;;8.43;3.15;;;7.40;99.90;;;;;;4974324;28;20105;-48
2022/11/23 05:11:19;;;;;;;9.38;3.35;;;7.30;99.90;;;;;;4974448;28;20023;-51
2022/11/23 05:13:45;;;;;;;5.90;2.60;;;7.30;99.90;;;;;;4973651;28;20083;-49
2022/11/23 05:16:10;;;;;;;8.05;2.38;;;7.30;99.90;;;;;;4974368;28;20089;-48
2022/11/23 05:18:36;;;;;;;7.28;2.88;;;7.30;99.90;;;;;;4973999;28;20019;-50
2022/11/23 05:21:01;;;;;;;9.55;4.15;;;7.40;99.90;;;;;;4974236;28;20459;-49
2022/11/23 05:23:27;;;;;;;12.32;3.25;;;7.30;99.90;;;;;;4973309;28;20395;-48
2022/11/23 05:25:52;;;;;;;6.97;2.45;;;7.30;99.90;;;;;;4973917;28;20031;-48
2022/11/23 05:28:20;;;;;;;3.72;2.30;;;7.30;99.90;;;;;;4973749;28;20435;-52
2022/11/23 05:30:46;;;;;;;12.68;3.08;;;7.30;99.90;;;;;;4974038;28;20026;-47
2022/11/23 05:33:12;;;;;;;8.63;2.90;;;7.30;99.90;;;;;;4973227;28;20097;-48
2022/11/23 05:35:37;;;;;;;11.00;2.65;;;7.30;99.90;;;;;;4973788;28;20026;-48
2022/11/23 05:38:04;;;;;;;7.07;2.45;;;7.30;99.90;;;;;;4973827;28;20031;-48
2022/11/23 05:40:29;;;;;;;5.70;3.00;;;7.30;99.90;;;;;;4972263;28;20030;-52
2022/11/23 05:42:58;;;;;;;5.25;2.58;;;7.30;99.90;;;;;;4971965;28;20610;-48
2022/11/23 05:45:25;;;;;;;12.95;3.65;;;7.30;99.90;;;;;;4974076;28;20026;-50
2022/11/23 05:47:57;;;;;;;3.40;2.42;;;7.40;99.90;;;;;;4973748;28;20027;-48
2022/11/23 05:50:26;;;;;;;6.75;2.75;;;7.40;99.90;;;;;;4999588;23;20039;-46
2022/11/23 05:52:54;;;;;;;11.65;2.92;;;7.30;99.90;;;;;;4992325;28;20026;-49
2022/11/23 05:55:19;;;;;;;7.07;2.30;;;7.30;99.90;;;;;;4992928;28;20037;-46
2022/11/23 05:57:45;;;;;;;13.23;3.28;;;7.30;99.90;;;;;;4992759;28;20026;-41
2022/11/23 06:00:11;;;;;;;9.60;2.58;;;7.30;99.90;;;;;;4992720;28;20375;-45
2022/11/23 06:02:37;;;;;;;8.52;2.28;;;7.40;99.90;;;;;;4992247;28;20393;-45
2022/11/23 06:05:03;;;;;;;6.55;2.42;;;7.30;99.90;;;;;;4992977;28;20114;-46
2022/11/23 06:07:31;;;;;;;9.05;3.15;;;7.30;99.90;;;;;;4992578;28;20069;-48
2022/11/23 06:09:57;;;;;;;9.55;2.60;;;7.30;99.90;;;;;;4992620;28;20021;-49
2022/11/23 06:12:22;;;;;;;6.68;2.42;;;7.30;99.90;;;;;;4992175;28;20093;-50
2022/11/23 06:14:48;;;;;;;7.55;2.65;;;7.30;99.90;;;;;;4992689;28;20073;-45
2022/11/23 06:17:13;;;;;;;6.30;2.42;;;7.20;99.90;;;;;;4992493;28;20057;-46
2022/11/23 06:19:39;;;;;;;17.58;3.10;;;7.20;99.90;;;;;;4991291;28;20019;-49
2022/11/23 06:22:05;;;;;;;6.28;2.70;;;7.20;99.90;;;;;;4992024;28;20482;-44
2022/11/23 06:24:30;;;;;;;12.23;3.47;;;7.20;99.90;;;;;;5007922;28;20050;-42
2022/11/23 06:26:56;;;;;;;7.15;2.45;;;7.10;99.90;;;;;;4992643;28;20398;-48
2022/11/23 06:29:21;;;;;;;8.10;2.83;;;7.20;99.90;;;;;;4993140;28;20387;-47
2022/11/23 06:31:47;;;;;;;8.63;2.70;;;7.20;99.90;;;;;;4991622;28;20022;-46
2022/11/23 06:34:13;;;;;;;8.65;3.42;;;7.20;99.90;;;;;;4991943;28;20386;-46
2022/11/23 06:36:39;;;;;;;10.18;3.50;;;7.20;99.90;;;;;;4992217;28;20495;-45
2022/11/23 06:39:05;;;;;;;6.75;3.05;;;7.20;99.90;;;;;;4992272;28;20034;-44
2022/11/23 06:41:30;;;;;;;8.18;2.75;;;7.20;99.90;;;;;;5007034;28;20402;-46
2022/11/23 06:43:56;;;;;;;8.55;3.17;;;7.20;99.90;;;;;;4991438;28;20036;-44
2022/11/23 06:46:21;;;;;;;7.13;2.88;;;7.30;99.90;;;;;;4991827;28;20445;-45
2022/11/23 06:48:47;;;;;;;13.27;3.15;;;7.30;99.90;;;;;;4992127;28;20068;-41
2022/11/23 06:51:14;;;;;;;10.88;3.22;;;7.30;99.90;;;;;;4991605;28;20158;-47
2022/11/23 06:53:40;;;;;;;11.35;2.85;;;7.30;99.90;;;;;;4991406;28;20402;-46
2022/11/23 06:56:06;;;;;;;4.20;2.45;;;7.30;99.90;;;;;;4991913;28;20026;-48
2022/11/23 06:58:32;;;;;;;5.57;2.90;;;7.30;99.90;;;;;;4991897;28;20047;-48
2022/11/23 07:01:03;;;;;;;9.48;4.00;;;7.30;99.90;;;;;;4991900;28;20105;-46
2022/11/23 07:03:28;;;;;;;9.27;3.60;;;7.40;99.90;;;;;;5006504;28;20445;-40
2022/11/23 07:05:54;;;;;;;7.13;3.70;;;7.30;99.90;;;;;;4992008;28;20038;-47
2022/11/23 07:08:19;;;;;;;14.60;4.40;;;7.30;99.90;;;;;;4991946;28;20027;-45
2022/11/23 07:10:45;;;;;;;8.98;3.15;;;7.40;99.90;;;;;;4992024;28;20022;-44
2022/11/23 07:13:12;;;;;;;8.07;3.28;;;7.50;99.90;;;;;;4991969;28;20023;-45
2022/11/23 07:15:37;;;;;;;9.15;3.08;;;7.50;99.90;;;;;;4993380;28;20068;-54
2022/11/23 07:18:04;;;;;;;7.00;3.15;;;7.50;99.90;;;;;;4993808;28;20105;-48
2022/11/23 07:20:30;;;;;;;9.95;3.72;;;7.50;99.90;;;;;;4991371;28;20052;-54
2022/11/23 07:23:03;;;;;;;12.82;3.20;;;7.60;99.90;;;;;;4987335;28;20434;-51
2022/11/23 07:25:30;;;;;;;8.88;3.42;;;7.60;99.90;;;;;;4985274;28;20023;-44
2022/11/23 07:27:58;;;;;;;11.05;3.55;;;7.60;99.90;;;;;;4992650;28;20034;-49
2022/11/23 07:30:24;;;;;;;17.00;3.53;;;7.60;99.90;;;;;;4993495;28;20054;-47
2022/11/23 07:32:51;;;;;;;11.52;3.72;;;7.70;99.90;;;;;;4992080;28;20019;-46
2022/11/23 07:35:17;;;;;;;11.80;3.22;;;7.70;99.90;;;;;;4993085;28;20406;-51
2022/11/23 07:37:43;;;;;;;10.40;2.80;;;7.70;99.90;;;;;;5008235;28;20030;-49
2022/11/23 07:40:09;;;;;;;7.28;2.25;;;7.60;99.90;;;;;;4990676;28;20114;-48
2022/11/23 07:42:35;;;;;;;8.40;2.83;;;7.60;99.90;;;;;;4990277;28;20034;-54
2022/11/23 07:45:01;;;;;;;8.48;3.25;;;7.60;99.90;;;;;;4991222;28;20042;-54
2022/11/23 07:47:27;;;;;;;8.60;3.20;;;7.60;99.90;;;;;;4990841;28;20026;-50
2022/11/23 07:49:53;;;;;;;8.50;2.80;;;7.60;99.90;;;;;;4990813;28;20036;-44
2022/11/23 07:52:18;;;;;;;14.43;3.08;;;7.60;99.90;;;;;;4988112;28;20295;-53
2022/11/23 07:54:44;;;;;;;10.10;3.15;;;7.60;99.90;;;;;;5005091;28;20094;-42
2022/11/23 07:57:10;;;;;;;7.18;3.70;;;7.60;99.90;;;;;;5001132;28;20093;-44
2022/11/23 07:59:35;;;;;;;9.07;3.83;;;7.60;99.90;;;;;;4998935;28;20007;-41
2022/11/23 08:02:01;;;;;;;6.82;2.88;;;7.60;99.90;;;;;;5026470;28;20467;-48
2022/11/23 08:04:28;;;;;;;6.90;3.33;;;8.00;99.90;;;;;;5014423;28;20037;-42
2022/11/23 08:06:54;;;;;;;8.40;2.70;;;7.80;99.90;;;;;;5013457;28;20050;-40
2022/11/23 08:09:19;;;;;;;11.00;3.08;;;7.80;99.90;;;;;;5013952;28;20023;-40
2022/11/23 08:11:46;;;;;;;13.30;4.18;;;7.80;99.90;;;;;;5013955;28;20030;-51
2022/11/23 08:14:11;;;;;;;10.75;2.92;;;7.90;99.90;;;;;;5012267;28;20023;-49
2022/11/23 08:16:37;;;;;;;6.82;3.00;;;8.00;99.90;;;;;;5023497;28;20029;-50
2022/11/23 08:19:02;;;;;;;5.55;2.35;;;8.00;99.90;;;;;;5010478;28;20022;-56
2022/11/23 08:21:28;;;;;;;10.38;3.30;;;8.00;99.90;;;;;;5003589;28;20026;-46
2022/11/23 08:23:54;;;;;;;7.72;2.05;;;8.00;99.90;;;;;;5007560;28;20049;-44
2022/11/23 08:26:22;;;;;;;6.72;3.45;;;8.10;99.90;;;;;;5007080;28;20034;-48
2022/11/23 08:28:48;;;;;;;4.55;2.22;;;8.00;99.90;;;;;;5004083;28;20397;-48
2022/11/23 08:31:14;;;;;;;10.85;2.50;;;8.10;99.90;;;;;;5008039;28;20046;-47
2022/11/23 08:33:40;;;;;;;4.82;2.40;;;8.10;99.90;;;;;;5029633;28;20018;-43
2022/11/23 08:36:07;;;;;;;6.78;2.55;;;8.10;99.90;;;;;;5017095;28;20023;-45
2022/11/23 08:38:33;;;;;;;6.20;2.13;;;8.10;99.90;;;;;;5017953;28;20022;-47
2022/11/23 08:41:00;;;;;;;12.43;2.85;;;8.20;99.90;;;;;;5017024;28;20010;-41
2022/11/23 08:43:27;;;;;;;5.55;2.35;;;8.30;99.90;;;;;;5016114;28;20033;-44
2022/11/23 08:45:57;;;;;;;7.05;2.72;;;8.80;99.90;;;;;;5014834;28;20034;-45
2022/11/23 08:48:30;;;;;;;7.55;2.92;;;9.70;99.90;;;;;;5031546;28;20092;-41
2022/11/23 08:50:59;;;;;;;10.57;3.22;;;10.60;99.90;;;;;;5018882;28;20050;-47
2022/11/23 08:53:25;;;;;;;9.80;2.60;;;11.60;99.90;;;;;;5030964;28;20022;-48
2022/11/23 08:55:51;;;;;;;5.03;2.33;;;12.60;99.90;;;;;;5017041;28;20086;-42
2022/11/23 08:58:17;;;;;;;6.30;2.33;;;13.20;99.90;;;;;;5015463;28;20046;-52
2022/11/23 09:00:43;;;;;;;7.82;2.75;;;13.60;99.90;;;;;;5016606;28;20033;-47
2022/11/23 09:03:09;;;;;;;5.65;1.98;;;14.10;99.90;;;;;;5014216;28;20026;-47
2022/11/23 09:05:37;;;;;;;8.45;2.42;;;14.50;99.90;;;;;;5012770;28;20034;-46
2022/11/23 09:08:03;;;;;;;6.03;2.40;;;14.90;99.90;;;;;;5012024;28;20498;-49
2022/11/23 09:10:29;;;;;;;5.10;1.80;;;15.00;99.90;;;;;;5011729;28;20352;-50
2022/11/23 09:12:55;;;;;;;3.60;2.00;;;14.80;99.90;;;;;;5012923;28;20038;-41
2022/11/23 09:15:20;;;;;;;5.63;2.05;;;14.60;99.90;;;;;;5027070;28;20050;-48
2022/11/23 09:17:47;;;;;;;5.28;1.95;;;14.70;99.90;;;;;;5009490;28;20041;-45
2022/11/23 09:20:12;;;;;;;14.23;2.80;;;14.10;99.90;;;;;;5008781;28;20030;-50
2022/11/23 09:22:38;;;;;;;3.92;1.90;;;13.90;99.90;;;;;;5012663;28;20050;-45
2022/11/23 09:25:05;;;;;;;9.82;2.22;;;13.90;99.90;;;;;;5013274;28;20030;-48
2022/11/23 09:27:33;;;;;;;4.95;1.90;;;14.10;99.90;;;;;;5028332;28;20046;-44
2022/11/23 09:29:58;;;;;;;7.43;2.13;;;14.50;99.90;;;;;;5015139;28;20045;-43
2022/11/23 09:32:25;;;;;;;6.22;2.58;;;14.70;99.90;;;;;;5015158;28;20038;-47
2022/11/23 09:34:51;;;;;;;12.27;2.47;;;14.50;99.90;;;;;;5014932;28;20030;-47
2022/11/23 09:37:17;;;;;;;11.15;4.47;;;13.90;99.90;;;;;;5015590;28;20034;-44
2022/11/23 09:39:43;;;;;;;7.45;2.10;;;13.80;99.90;;;;;;5015230;28;20026;-47
2022/11/23 09:42:33;;;;;;;8.57;2.45;;;14.00;99.90;;;;;;5010735;28;20034;-44
2022/11/23 09:45:07;;;;;;;7.63;2.30;;;14.20;99.90;;;;;;4991657;28;20041;-44
2022/11/23 09:48:01;;;;;;;6.57;2.08;;;14.30;99.90;;;;;;5011841;28;20546;-51
2022/11/23 09:50:28;;;;;;;4.85;2.80;;;14.60;99.90;;;;;;5014746;28;20041;-47
2022/11/23 09:52:54;;;;;;;7.88;2.50;;;14.80;99.90;;;;;;5010238;28;20085;-46
2022/11/23 09:55:28;;;;;;;5.60;2.70;;;15.00;99.90;;;;;;5009689;28;20022;-47
2022/11/23 09:58:01;;;;;;;9.00;2.28;;;15.00;99.90;;;;;;5009982;28;20052;-47
2022/11/23 10:00:50;;;;;;;4.82;2.10;;;14.90;99.90;;;;;;5008648;28;20026;-49
2022/11/23 10:03:17;;;;;;;6.35;2.30;;;15.00;99.90;;;;;;4997658;28;20054;-49
2022/11/23 10:05:52;;;;;;;7.13;1.85;;;15.10;99.90;;;;;;5010134;28;20074;-48
2022/11/23 10:08:46;;;;;;;11.40;3.75;;;15.00;99.90;;;;;;5010656;28;20065;-41
2022/11/23 10:11:42;;;;;;;7.45;2.47;;;15.00;99.90;;;;;;4990090;28;20019;-44
2022/11/23 10:14:37;;;;;;;3.90;1.83;;;14.80;99.90;;;;;;4989201;28;20019;-48
2022/11/23 10:17:27;;;;;;;5.65;2.60;;;14.70;99.90;;;;;;4990475;28;20072;-48
2022/11/23 10:20:15;;;;;;;4.15;1.90;;;14.90;99.90;;;;;;4989643;28;20031;-44
2022/11/23 10:22:55;;;;;;;6.82;2.08;;;14.90;99.90;;;;;;5002840;28;20097;-44
2022/11/23 10:25:22;;;;;;;4.10;1.77;;;15.10;99.90;;;;;;4998120;28;20018;-48
2022/11/23 10:27:53;;;;;;;5.38;2.03;;;14.80;99.90;;;;;;4999251;28;20026;-44
2022/11/23 10:30:19;;;;;;;6.93;2.25;;;15.00;99.90;;;;;;4999418;28;20034;-46
2022/11/23 10:32:51;;;;;;;5.88;1.92;;;15.10;99.90;;;;;;4997905;28;20109;-52
2022/11/23 10:35:29;;;;;;;5.55;2.15;;;15.00;99.90;;;;;;4997094;28;20162;-41
2022/11/23 10:38:15;;;;;;;4.63;1.80;;;14.70;99.90;;;;;;4989583;28;20043;-47
2022/11/23 10:41:08;;;;;;;8.57;1.92;;;14.40;99.90;;;;;;4991360;28;20105;-45
2022/11/23 10:43:43;;;;;;;8.18;2.15;;;14.00;99.90;;;;;;5010410;28;20404;-48
2022/11/23 10:46:23;;;;;;;6.28;2.25;;;13.50;99.90;;;;;;5024883;28;20029;-44
2022/11/23 10:48:50;;;;;;;6.28;1.90;;;13.10;99.90;;;;;;5011997;28;20018;-49
2022/11/23 10:51:32;;;;;;;11.98;4.38;;;12.80;99.90;;;;;;5009167;28;20049;-49
2022/11/23 10:54:03;;;;;;;16.40;8.23;;;12.60;99.90;;;;;;5007824;28;20086;-44
2022/11/23 10:56:30;;;;;;;9.73;3.83;;;12.30;99.90;;;;;;5005516;28;20023;-47
2022/11/23 10:58:56;;;;;;;9.02;2.22;;;12.20;99.90;;;;;;4998113;28;20109;-43
2022/11/23 11:01:24;;;;;;;6.65;2.95;;;12.10;99.90;;;;;;5016734;28;20072;-62
2022/11/23 11:03:52;;;;;;;12.40;2.40;;;12.00;99.90;;;;;;4996397;28;20113;-48
2022/11/23 11:06:29;;;;;;;9.45;2.75;;;11.90;99.90;;;;;;4997966;28;20030;-55
2022/11/23 11:09:00;;;;;;;5.30;1.85;;;11.60;99.90;;;;;;4995202;28;20034;-53
2022/11/23 11:11:33;;;;;;;4.93;1.52;;;11.60;99.90;;;;;;5001785;28;20124;-47
2022/11/23 11:14:05;;;;;;;6.97;2.10;;;11.50;99.90;;;;;;4997903;28;20486;-48
2022/11/23 11:16:33;;;;;;;6.07;1.88;;;11.40;99.90;;;;;;5026004;28;20022;-51
2022/11/23 11:19:21;;;;;;;6.15;1.88;;;11.30;99.90;;;;;;5008984;28;20023;-50
2022/11/23 11:21:47;;;;;;;8.25;2.10;;;11.20;99.90;;;;;;5010370;28;20022;-51
2022/11/23 11:24:43;;;;;;;5.18;2.42;;;11.20;99.90;;;;;;5008463;28;20073;-47
2022/11/23 11:27:23;;;;;;;10.55;1.88;;;11.20;99.90;;;;;;5006343;28;20038;-51
2022/11/23 11:30:03;;;;;;;10.45;2.33;;;11.10;99.90;;;;;;5024922;28;20034;-49
2022/11/23 11:32:49;;;;;;;4.90;1.70;;;11.10;99.90;;;;;;5024004;28;20020;-47
2022/11/23 11:35:33;;;;;;;6.50;1.90;;;11.10;99.90;;;;;;5007268;28;20085;-49
2022/11/23 11:38:04;;;;;;;8.25;2.58;;;11.10;99.90;;;;;;5008750;28;20044;-46
2022/11/23 11:40:38;;;;;;;10.55;2.35;;;11.10;99.90;;;;;;5024189;28;20026;-51
2022/11/23 11:43:10;;;;;;;6.55;3.03;;;11.00;99.90;;;;;;5011686;28;20080;-43
2022/11/23 11:45:44;;;;;;;5.95;2.15;;;11.00;99.90;;;;;;5026522;28;20136;-48
2022/11/23 11:48:24;;;;;;;5.78;2.80;;;10.90;99.90;;;;;;5013727;28;20054;-50
2022/11/23 11:51:06;;;;;;;8.63;1.92;;;10.80;99.90;;;;;;5012683;28;20027;-45
2022/11/23 11:53:41;;;;;;;7.32;2.08;;;10.80;99.90;;;;;;4989682;23;20059;-47
2022/11/23 11:56:26;;;;;;;7.95;2.70;;;10.70;99.90;;;;;;4956298;28;20061;-50
2022/11/23 11:59:01;;;;;;;5.32;1.63;;;10.60;99.90;;;;;;4955911;28;20399;-45
2022/11/23 12:01:43;;;;;;;7.50;2.10;;;10.60;99.90;;;;;;4955093;28;20050;-46
2022/11/23 12:04:31;;;;;;;8.10;2.28;;;10.70;99.90;;;;;;4955634;28;20027;-44
2022/11/23 12:07:30;;;;;;;8.95;2.35;;;10.70;99.90;;;;;;4943847;28;20143;-44
2022/11/23 12:10:02;;;;;;;7.40;2.20;;;10.60;99.90;;;;;;4931597;29;20042;-47
2022/11/23 12:12:30;;;;;;;7.35;2.00;;;10.50;99.90;;;;;;4936583;29;20030;-48
2022/11/23 12:14:56;;;;;;;9.25;2.15;;;10.50;99.90;;;;;;4937380;29;20031;-49
2022/11/23 12:17:46;;;;;;;5.45;1.90;;;10.50;99.90;;;;;;4936784;29;20028;-44
2022/11/23 12:20:37;;;;;;;5.03;1.70;;;10.50;99.90;;;;;;4935501;29;20225;-50
2022/11/23 12:23:16;;;;;;;8.95;2.38;;;10.50;99.90;;;;;;4943865;29;20123;-50
2022/11/23 12:26:10;;;;;;;7.07;2.35;;;10.50;99.90;;;;;;4938062;29;20053;-46
2022/11/23 12:29:03;;;;;;;9.13;2.33;;;10.60;99.90;;;;;;4936714;29;20346;-52
2022/11/23 12:31:49;;;;;;;11.98;2.53;;;10.50;99.90;;;;;;4937115;29;20550;-53
2022/11/23 12:34:40;;;;;;;18.98;9.70;;;10.50;99.90;;;;;;4935012;29;20091;-52
2022/11/23 12:37:26;;;;;;;6.25;1.92;;;10.50;99.90;;;;;;4936703;29;20035;-46
2022/11/23 12:40:26;;;;;;;8.40;2.15;;;10.50;99.90;;;;;;4936500;29;20063;-45
2022/11/23 12:43:11;;;;;;;6.28;1.90;;;10.50;99.90;;;;;;4934854;29;20087;-49
2022/11/23 12:45:55;;;;;;;5.97;2.30;;;10.40;99.90;;;;;;4938195;29;20483;-44
2022/11/23 12:48:28;;;;;;;7.20;1.67;;;10.40;99.90;;;;;;4916996;29;20092;-47
2022/11/23 12:51:13;;;;;;;3.40;1.48;;;10.50;99.90;;;;;;4916537;29;20504;-46
2022/11/23 12:54:02;;;;;;;7.88;1.90;;;10.50;99.90;;;;;;4926205;29;20031;-47
2022/11/23 12:56:58;;;;;;;7.60;2.13;;;10.40;99.90;;;;;;4931548;29;20032;-46
2022/11/23 12:59:29;;;;;;;7.05;1.50;;;10.40;99.90;;;;;;4950465;28;20089;-44
2022/11/23 13:02:02;;;;;;;5.30;2.10;;;10.40;99.90;;;;;;4935826;29;20178;-47
2022/11/23 13:05:01;;;;;;;4.38;2.05;;;10.40;99.90;;;;;;4936174;29;20030;-45